sensor_id;sensor_type;location;lat;lon;timestamp;P1;durP1;ratioP1;P2;durP2;ratioP2
59416;SDS011;45222;52.458;20.914;2024-03-02T00:01:17;38.40;;;30.00;;
59416;SDS011;45222;52.458;20.914;2024-03-02T00:05:06;37.40;;;30.00;;
59416;SDS011;45222;52.458;20.914;2024-03-02T00:08:58;35.50;;;28.90;;
59416;SDS011;45222;52.458;20.914;2024-03-02T00:12:46;33.00;;;26.80;;
59416;SDS011;45222;52.458;20.914;2024-03-02T00:16:34;33.90;;;27.20;;
59416;SDS011;45222;52.458;20.914;2024-03-02T00:20:22;36.20;;;27.70;;
59416;SDS011;45222;52.458;20.914;2024-03-02T00:24:18;35.20;;;28.00;;
59416;SDS011;45222;52.458;20.914;2024-03-02T00:28:21;34.60;;;28.70;;
59416;SDS011;45222;52.458;20.914;2024-03-02T00:32:12;32.10;;;26.50;;
59416;SDS011;45222;52.458;20.914;2024-03-02T00:36:01;35.90;;;26.60;;
59416;SDS011;45222;52.458;20.914;2024-03-02T00:39:50;34.50;;;27.40;;
59416;SDS011;45222;52.458;20.914;2024-03-02T00:43:44;32.20;;;26.60;;
59416;SDS011;45222;52.458;20.914;2024-03-02T00:47:35;35.00;;;28.30;;
59416;SDS011;45222;52.458;20.914;2024-03-02T00:51:25;33.10;;;28.30;;
59416;SDS011;45222;52.458;20.914;2024-03-02T00:55:13;34.40;;;27.20;;
59416;SDS011;45222;52.458;20.914;2024-03-02T00:59:01;31.30;;;25.80;;
59416;SDS011;45222;52.458;20.914;2024-03-02T01:02:49;31.60;;;24.20;;
59416;SDS011;45222;52.458;20.914;2024-03-02T01:06:37;30.90;;;26.20;;
59416;SDS011;45222;52.458;20.914;2024-03-02T01:10:25;33.70;;;26.70;;
59416;SDS011;45222;52.458;20.914;2024-03-02T01:14:12;34.40;;;27.50;;
59416;SDS011;45222;52.458;20.914;2024-03-02T01:18:00;31.80;;;26.30;;
59416;SDS011;45222;52.458;20.914;2024-03-02T01:21:48;32.40;;;25.80;;
59416;SDS011;45222;52.458;20.914;2024-03-02T01:25:36;32.60;;;24.90;;
59416;SDS011;45222;52.458;20.914;2024-03-02T01:29:24;31.30;;;26.20;;
59416;SDS011;45222;52.458;20.914;2024-03-02T01:33:11;32.60;;;27.10;;
59416;SDS011;45222;52.458;20.914;2024-03-02T01:36:59;34.00;;;28.20;;
59416;SDS011;45222;52.458;20.914;2024-03-02T01:40:47;36.60;;;27.40;;
59416;SDS011;45222;52.458;20.914;2024-03-02T01:44:34;32.20;;;25.90;;
59416;SDS011;45222;52.458;20.914;2024-03-02T01:48:22;31.90;;;26.10;;
59416;SDS011;45222;52.458;20.914;2024-03-02T01:52:10;33.90;;;27.10;;
59416;SDS011;45222;52.458;20.914;2024-03-02T01:55:57;35.20;;;28.10;;
59416;SDS011;45222;52.458;20.914;2024-03-02T01:59:46;36.80;;;30.10;;
59416;SDS011;45222;52.458;20.914;2024-03-02T02:03:35;34.00;;;27.40;;
59416;SDS011;45222;52.458;20.914;2024-03-02T02:07:23;32.50;;;26.30;;
59416;SDS011;45222;52.458;20.914;2024-03-02T02:11:12;33.00;;;25.10;;
59416;SDS011;45222;52.458;20.914;2024-03-02T02:15:02;31.40;;;25.90;;
59416;SDS011;45222;52.458;20.914;2024-03-02T02:19:07;33.90;;;26.90;;
59416;SDS011;45222;52.458;20.914;2024-03-02T02:22:58;32.40;;;26.40;;
59416;SDS011;45222;52.458;20.914;2024-03-02T02:26:47;32.40;;;25.60;;
59416;SDS011;45222;52.458;20.914;2024-03-02T02:30:35;31.10;;;24.70;;
59416;SDS011;45222;52.458;20.914;2024-03-02T02:34:23;31.80;;;24.40;;
59416;SDS011;45222;52.458;20.914;2024-03-02T02:38:11;26.20;;;22.40;;
59416;SDS011;45222;52.458;20.914;2024-03-02T02:41:58;29.00;;;23.30;;
59416;SDS011;45222;52.458;20.914;2024-03-02T02:45:47;29.20;;;24.10;;
59416;SDS011;45222;52.458;20.914;2024-03-02T02:49:35;30.10;;;24.90;;
59416;SDS011;45222;52.458;20.914;2024-03-02T02:53:23;26.80;;;23.10;;
59416;SDS011;45222;52.458;20.914;2024-03-02T02:57:10;26.70;;;22.80;;
59416;SDS011;45222;52.458;20.914;2024-03-02T03:00:58;24.90;;;21.10;;
59416;SDS011;45222;52.458;20.914;2024-03-02T03:04:46;26.30;;;21.70;;
59416;SDS011;45222;52.458;20.914;2024-03-02T03:08:33;26.90;;;23.10;;
59416;SDS011;45222;52.458;20.914;2024-03-02T03:12:21;28.40;;;24.10;;
59416;SDS011;45222;52.458;20.914;2024-03-02T03:16:09;26.60;;;22.20;;
59416;SDS011;45222;52.458;20.914;2024-03-02T03:19:57;24.90;;;21.00;;
59416;SDS011;45222;52.458;20.914;2024-03-02T03:23:46;24.80;;;21.10;;
59416;SDS011;45222;52.458;20.914;2024-03-02T03:27:33;26.60;;;21.10;;
59416;SDS011;45222;52.458;20.914;2024-03-02T03:31:21;25.70;;;21.60;;
59416;SDS011;45222;52.458;20.914;2024-03-02T03:35:09;26.20;;;22.30;;
59416;SDS011;45222;52.458;20.914;2024-03-02T03:38:57;27.50;;;23.70;;
59416;SDS011;45222;52.458;20.914;2024-03-02T03:42:47;27.60;;;22.50;;
59416;SDS011;45222;52.458;20.914;2024-03-02T03:46:36;24.50;;;20.60;;
59416;SDS011;45222;52.458;20.914;2024-03-02T03:50:24;24.80;;;20.40;;
59416;SDS011;45222;52.458;20.914;2024-03-02T03:54:11;27.70;;;22.50;;
59416;SDS011;45222;52.458;20.914;2024-03-02T03:57:59;29.20;;;23.80;;
59416;SDS011;45222;52.458;20.914;2024-03-02T04:01:47;28.60;;;24.20;;
59416;SDS011;45222;52.458;20.914;2024-03-02T04:05:34;26.90;;;22.30;;
59416;SDS011;45222;52.458;20.914;2024-03-02T04:09:23;26.30;;;22.00;;
59416;SDS011;45222;52.458;20.914;2024-03-02T04:13:11;26.90;;;20.80;;
59416;SDS011;45222;52.458;20.914;2024-03-02T04:16:59;26.30;;;22.30;;
59416;SDS011;45222;52.458;20.914;2024-03-02T04:20:46;27.10;;;23.20;;
59416;SDS011;45222;52.458;20.914;2024-03-02T04:24:34;27.60;;;24.40;;
59416;SDS011;45222;52.458;20.914;2024-03-02T04:28:21;27.90;;;22.50;;
59416;SDS011;45222;52.458;20.914;2024-03-02T04:32:09;25.90;;;21.20;;
59416;SDS011;45222;52.458;20.914;2024-03-02T04:35:57;25.70;;;20.90;;
59416;SDS011;45222;52.458;20.914;2024-03-02T04:39:45;25.30;;;20.60;;
59416;SDS011;45222;52.458;20.914;2024-03-02T04:43:33;25.70;;;21.00;;
59416;SDS011;45222;52.458;20.914;2024-03-02T04:47:20;26.40;;;22.10;;
59416;SDS011;45222;52.458;20.914;2024-03-02T04:51:08;27.90;;;23.90;;
59416;SDS011;45222;52.458;20.914;2024-03-02T04:54:56;28.60;;;22.00;;
59416;SDS011;45222;52.458;20.914;2024-03-02T04:59:04;24.10;;;21.10;;
59416;SDS011;45222;52.458;20.914;2024-03-02T05:02:52;26.80;;;21.60;;
59416;SDS011;45222;52.458;20.914;2024-03-02T05:06:40;25.30;;;21.60;;
59416;SDS011;45222;52.458;20.914;2024-03-02T05:10:28;27.90;;;21.70;;
59416;SDS011;45222;52.458;20.914;2024-03-02T05:14:15;30.90;;;23.80;;
59416;SDS011;45222;52.458;20.914;2024-03-02T05:18:03;30.80;;;24.30;;
59416;SDS011;45222;52.458;20.914;2024-03-02T05:21:51;28.20;;;23.10;;
59416;SDS011;45222;52.458;20.914;2024-03-02T05:25:39;27.20;;;21.70;;
59416;SDS011;45222;52.458;20.914;2024-03-02T05:29:27;27.50;;;22.70;;
59416;SDS011;45222;52.458;20.914;2024-03-02T05:33:15;27.30;;;22.90;;
59416;SDS011;45222;52.458;20.914;2024-03-02T05:37:02;27.30;;;23.40;;
59416;SDS011;45222;52.458;20.914;2024-03-02T05:40:50;31.20;;;25.40;;
59416;SDS011;45222;52.458;20.914;2024-03-02T05:44:38;28.80;;;23.90;;
59416;SDS011;45222;52.458;20.914;2024-03-02T05:48:25;29.20;;;22.70;;
59416;SDS011;45222;52.458;20.914;2024-03-02T05:52:14;27.20;;;22.00;;
59416;SDS011;45222;52.458;20.914;2024-03-02T05:56:01;28.10;;;21.70;;
59416;SDS011;45222;52.458;20.914;2024-03-02T05:59:49;29.40;;;23.40;;
59416;SDS011;45222;52.458;20.914;2024-03-02T06:03:37;29.50;;;24.30;;
59416;SDS011;45222;52.458;20.914;2024-03-02T06:07:24;30.70;;;25.60;;
59416;SDS011;45222;52.458;20.914;2024-03-02T06:11:12;28.60;;;23.80;;
59416;SDS011;45222;52.458;20.914;2024-03-02T06:15:00;26.80;;;22.10;;
59416;SDS011;45222;52.458;20.914;2024-03-02T06:18:48;26.80;;;21.80;;
59416;SDS011;45222;52.458;20.914;2024-03-02T06:22:36;28.60;;;22.90;;
59416;SDS011;45222;52.458;20.914;2024-03-02T06:26:23;28.60;;;23.10;;
59416;SDS011;45222;52.458;20.914;2024-03-02T06:30:12;30.40;;;24.00;;
59416;SDS011;45222;52.458;20.914;2024-03-02T06:37:48;27.50;;;21.90;;
59416;SDS011;45222;52.458;20.914;2024-03-02T06:41:36;24.60;;;20.20;;
59416;SDS011;45222;52.458;20.914;2024-03-02T06:45:23;25.80;;;20.30;;
59416;SDS011;45222;52.458;20.914;2024-03-02T06:49:12;26.00;;;20.60;;
59416;SDS011;45222;52.458;20.914;2024-03-02T06:52:59;28.20;;;21.70;;
59416;SDS011;45222;52.458;20.914;2024-03-02T06:56:49;28.70;;;22.10;;
59416;SDS011;45222;52.458;20.914;2024-03-02T07:00:36;28.40;;;20.90;;
59416;SDS011;45222;52.458;20.914;2024-03-02T07:04:26;26.40;;;20.60;;
59416;SDS011;45222;52.458;20.914;2024-03-02T07:08:14;23.60;;;19.40;;
59416;SDS011;45222;52.458;20.914;2024-03-02T07:12:02;25.00;;;18.60;;
59416;SDS011;45222;52.458;20.914;2024-03-02T07:15:50;26.40;;;20.10;;
59416;SDS011;45222;52.458;20.914;2024-03-02T07:20:06;26.30;;;20.50;;
59416;SDS011;45222;52.458;20.914;2024-03-02T07:23:56;26.60;;;20.30;;
59416;SDS011;45222;52.458;20.914;2024-03-02T07:27:45;26.70;;;20.40;;
59416;SDS011;45222;52.458;20.914;2024-03-02T07:31:33;27.90;;;19.80;;
59416;SDS011;45222;52.458;20.914;2024-03-02T07:35:21;28.40;;;20.40;;
59416;SDS011;45222;52.458;20.914;2024-03-02T07:39:12;28.10;;;21.30;;
59416;SDS011;45222;52.458;20.914;2024-03-02T07:43:00;28.60;;;21.30;;
59416;SDS011;45222;52.458;20.914;2024-03-02T07:46:48;28.90;;;21.10;;
59416;SDS011;45222;52.458;20.914;2024-03-02T07:50:36;26.90;;;20.00;;
59416;SDS011;45222;52.458;20.914;2024-03-02T07:54:24;27.20;;;19.30;;
59416;SDS011;45222;52.458;20.914;2024-03-02T07:58:12;25.40;;;19.10;;
59416;SDS011;45222;52.458;20.914;2024-03-02T08:02:04;28.00;;;19.60;;
59416;SDS011;45222;52.458;20.914;2024-03-02T08:05:58;27.60;;;20.80;;
59416;SDS011;45222;52.458;20.914;2024-03-02T08:09:46;28.50;;;19.60;;
59416;SDS011;45222;52.458;20.914;2024-03-02T08:13:34;24.80;;;19.00;;
59416;SDS011;45222;52.458;20.914;2024-03-02T08:17:21;24.00;;;19.00;;
59416;SDS011;45222;52.458;20.914;2024-03-02T08:21:09;26.40;;;20.60;;
59416;SDS011;45222;52.458;20.914;2024-03-02T08:24:57;28.40;;;21.10;;
59416;SDS011;45222;52.458;20.914;2024-03-02T08:28:45;30.70;;;21.30;;
59416;SDS011;45222;52.458;20.914;2024-03-02T08:32:33;27.50;;;20.30;;
59416;SDS011;45222;52.458;20.914;2024-03-02T08:36:23;26.10;;;19.70;;
59416;SDS011;45222;52.458;20.914;2024-03-02T08:40:13;26.50;;;20.00;;
59416;SDS011;45222;52.458;20.914;2024-03-02T08:44:01;25.90;;;20.00;;
59416;SDS011;45222;52.458;20.914;2024-03-02T08:47:50;27.70;;;21.80;;
59416;SDS011;45222;52.458;20.914;2024-03-02T08:51:39;27.90;;;19.70;;
59416;SDS011;45222;52.458;20.914;2024-03-02T08:55:29;27.20;;;20.00;;
59416;SDS011;45222;52.458;20.914;2024-03-02T08:59:17;25.70;;;19.00;;
59416;SDS011;45222;52.458;20.914;2024-03-02T09:03:05;26.90;;;20.20;;
59416;SDS011;45222;52.458;20.914;2024-03-02T09:06:53;29.60;;;20.50;;
59416;SDS011;45222;52.458;20.914;2024-03-02T09:10:41;28.40;;;20.80;;
59416;SDS011;45222;52.458;20.914;2024-03-02T09:14:29;30.20;;;21.10;;
59416;SDS011;45222;52.458;20.914;2024-03-02T09:18:17;27.90;;;20.80;;
59416;SDS011;45222;52.458;20.914;2024-03-02T09:22:05;28.30;;;19.80;;
59416;SDS011;45222;52.458;20.914;2024-03-02T09:25:52;27.10;;;20.50;;
59416;SDS011;45222;52.458;20.914;2024-03-02T09:29:40;28.60;;;21.70;;
59416;SDS011;45222;52.458;20.914;2024-03-02T09:33:28;29.40;;;22.60;;
59416;SDS011;45222;52.458;20.914;2024-03-02T09:37:17;30.00;;;21.30;;
59416;SDS011;45222;52.458;20.914;2024-03-02T09:41:05;30.90;;;21.00;;
59416;SDS011;45222;52.458;20.914;2024-03-02T09:44:53;29.50;;;20.00;;
59416;SDS011;45222;52.458;20.914;2024-03-02T09:48:40;28.20;;;20.60;;
59416;SDS011;45222;52.458;20.914;2024-03-02T09:52:33;26.90;;;20.70;;
59416;SDS011;45222;52.458;20.914;2024-03-02T09:56:22;31.90;;;21.40;;
59416;SDS011;45222;52.458;20.914;2024-03-02T10:00:10;29.00;;;20.30;;
59416;SDS011;45222;52.458;20.914;2024-03-02T10:03:59;27.00;;;20.00;;
59416;SDS011;45222;52.458;20.914;2024-03-02T10:07:50;29.00;;;20.90;;
59416;SDS011;45222;52.458;20.914;2024-03-02T10:11:49;28.20;;;20.20;;
59416;SDS011;45222;52.458;20.914;2024-03-02T10:15:38;27.50;;;20.50;;
59416;SDS011;45222;52.458;20.914;2024-03-02T10:19:27;29.10;;;19.60;;
59416;SDS011;45222;52.458;20.914;2024-03-02T10:23:17;29.00;;;22.50;;
59416;SDS011;45222;52.458;20.914;2024-03-02T10:27:15;28.50;;;21.20;;
59416;SDS011;45222;52.458;20.914;2024-03-02T10:31:03;30.10;;;21.60;;
59416;SDS011;45222;52.458;20.914;2024-03-02T10:34:51;30.40;;;20.40;;
59416;SDS011;45222;52.458;20.914;2024-03-02T10:38:39;26.40;;;19.90;;
59416;SDS011;45222;52.458;20.914;2024-03-02T10:42:28;28.00;;;19.90;;
59416;SDS011;45222;52.458;20.914;2024-03-02T10:46:16;27.50;;;20.40;;
59416;SDS011;45222;52.458;20.914;2024-03-02T10:50:08;27.70;;;21.00;;
59416;SDS011;45222;52.458;20.914;2024-03-02T10:53:56;29.50;;;19.80;;
59416;SDS011;45222;52.458;20.914;2024-03-02T10:57:49;28.60;;;19.60;;
59416;SDS011;45222;52.458;20.914;2024-03-02T11:01:39;25.90;;;20.00;;
59416;SDS011;45222;52.458;20.914;2024-03-02T11:05:29;27.60;;;20.70;;
59416;SDS011;45222;52.458;20.914;2024-03-02T11:09:21;28.30;;;21.20;;
59416;SDS011;45222;52.458;20.914;2024-03-02T11:13:11;25.90;;;19.40;;
59416;SDS011;45222;52.458;20.914;2024-03-02T11:16:59;24.40;;;18.30;;
59416;SDS011;45222;52.458;20.914;2024-03-02T11:20:50;26.90;;;19.20;;
59416;SDS011;45222;52.458;20.914;2024-03-02T11:24:40;29.40;;;21.10;;
59416;SDS011;45222;52.458;20.914;2024-03-02T11:28:35;29.40;;;20.70;;
59416;SDS011;45222;52.458;20.914;2024-03-02T11:32:23;33.10;;;22.00;;
59416;SDS011;45222;52.458;20.914;2024-03-02T11:36:11;24.70;;;18.50;;
59416;SDS011;45222;52.458;20.914;2024-03-02T11:39:59;25.00;;;18.30;;
59416;SDS011;45222;52.458;20.914;2024-03-02T11:43:47;26.50;;;19.40;;
59416;SDS011;45222;52.458;20.914;2024-03-02T11:47:35;27.60;;;20.90;;
59416;SDS011;45222;52.458;20.914;2024-03-02T11:51:23;28.30;;;20.90;;
59416;SDS011;45222;52.458;20.914;2024-03-02T11:55:11;24.90;;;20.80;;
59416;SDS011;45222;52.458;20.914;2024-03-02T12:02:47;27.00;;;20.70;;
59416;SDS011;45222;52.458;20.914;2024-03-02T12:06:45;28.80;;;21.20;;
59416;SDS011;45222;52.458;20.914;2024-03-02T12:10:35;28.50;;;21.70;;
59416;SDS011;45222;52.458;20.914;2024-03-02T12:14:23;27.20;;;21.50;;
59416;SDS011;45222;52.458;20.914;2024-03-02T12:18:13;29.50;;;22.20;;
59416;SDS011;45222;52.458;20.914;2024-03-02T12:22:01;30.90;;;23.70;;
59416;SDS011;45222;52.458;20.914;2024-03-02T12:25:51;26.80;;;21.50;;
59416;SDS011;45222;52.458;20.914;2024-03-02T12:29:39;30.50;;;23.00;;
59416;SDS011;45222;52.458;20.914;2024-03-02T12:33:26;30.80;;;24.10;;
59416;SDS011;45222;52.458;20.914;2024-03-02T12:37:15;31.30;;;24.30;;
59416;SDS011;45222;52.458;20.914;2024-03-02T12:41:03;32.90;;;25.50;;
59416;SDS011;45222;52.458;20.914;2024-03-02T12:44:52;33.70;;;26.80;;
59416;SDS011;45222;52.458;20.914;2024-03-02T12:52:26;35.90;;;27.00;;
59416;SDS011;45222;52.458;20.914;2024-03-02T12:56:14;33.60;;;27.70;;
59416;SDS011;45222;52.458;20.914;2024-03-02T13:00:04;34.20;;;26.80;;
59416;SDS011;45222;52.458;20.914;2024-03-02T13:03:53;35.30;;;28.30;;
59416;SDS011;45222;52.458;20.914;2024-03-02T13:07:42;34.00;;;29.10;;
59416;SDS011;45222;52.458;20.914;2024-03-02T13:11:30;36.40;;;29.90;;
59416;SDS011;45222;52.458;20.914;2024-03-02T13:15:18;34.90;;;30.70;;
59416;SDS011;45222;52.458;20.914;2024-03-02T13:19:08;32.20;;;26.60;;
59416;SDS011;45222;52.458;20.914;2024-03-02T13:22:57;32.10;;;26.20;;
59416;SDS011;45222;52.458;20.914;2024-03-02T13:26:44;31.60;;;26.30;;
59416;SDS011;45222;52.458;20.914;2024-03-02T13:30:32;31.30;;;26.70;;
59416;SDS011;45222;52.458;20.914;2024-03-02T13:34:19;30.70;;;27.30;;
59416;SDS011;45222;52.458;20.914;2024-03-02T13:38:07;30.70;;;25.90;;
59416;SDS011;45222;52.458;20.914;2024-03-02T13:41:55;29.90;;;24.60;;
59416;SDS011;45222;52.458;20.914;2024-03-02T13:45:48;31.90;;;24.70;;
59416;SDS011;45222;52.458;20.914;2024-03-02T13:49:38;29.90;;;25.80;;
59416;SDS011;45222;52.458;20.914;2024-03-02T13:53:28;31.90;;;25.60;;
59416;SDS011;45222;52.458;20.914;2024-03-02T13:57:17;32.30;;;26.00;;
59416;SDS011;45222;52.458;20.914;2024-03-02T14:01:05;31.80;;;26.40;;
59416;SDS011;45222;52.458;20.914;2024-03-02T14:04:53;31.50;;;24.70;;
59416;SDS011;45222;52.458;20.914;2024-03-02T14:08:40;29.00;;;23.50;;
59416;SDS011;45222;52.458;20.914;2024-03-02T14:16:15;30.60;;;24.50;;
59416;SDS011;45222;52.458;20.914;2024-03-02T14:20:03;31.50;;;25.00;;
59416;SDS011;45222;52.458;20.914;2024-03-02T14:23:54;32.30;;;25.90;;
59416;SDS011;45222;52.458;20.914;2024-03-02T14:27:45;30.30;;;24.10;;
59416;SDS011;45222;52.458;20.914;2024-03-02T14:31:33;31.50;;;24.70;;
59416;SDS011;45222;52.458;20.914;2024-03-02T14:35:20;34.80;;;24.60;;
59416;SDS011;45222;52.458;20.914;2024-03-02T14:39:13;31.30;;;25.20;;
59416;SDS011;45222;52.458;20.914;2024-03-02T14:43:00;32.80;;;26.60;;
59416;SDS011;45222;52.458;20.914;2024-03-02T14:46:48;35.10;;;27.10;;
59416;SDS011;45222;52.458;20.914;2024-03-02T14:50:36;35.60;;;26.60;;
59416;SDS011;45222;52.458;20.914;2024-03-02T14:54:24;33.90;;;25.10;;
59416;SDS011;45222;52.458;20.914;2024-03-02T14:58:12;32.50;;;25.20;;
59416;SDS011;45222;52.458;20.914;2024-03-02T15:02:02;31.10;;;25.70;;
59416;SDS011;45222;52.458;20.914;2024-03-02T15:05:50;33.60;;;27.70;;
59416;SDS011;45222;52.458;20.914;2024-03-02T15:09:38;35.60;;;28.30;;
59416;SDS011;45222;52.458;20.914;2024-03-02T15:13:26;33.00;;;26.80;;
59416;SDS011;45222;52.458;20.914;2024-03-02T15:17:14;33.40;;;26.80;;
59416;SDS011;45222;52.458;20.914;2024-03-02T15:24:50;31.20;;;25.10;;
59416;SDS011;45222;52.458;20.914;2024-03-02T15:28:38;30.80;;;25.70;;
59416;SDS011;45222;52.458;20.914;2024-03-02T15:32:26;34.20;;;27.30;;
59416;SDS011;45222;52.458;20.914;2024-03-02T15:36:13;32.00;;;27.00;;
59416;SDS011;45222;52.458;20.914;2024-03-02T15:40:01;31.90;;;25.40;;
59416;SDS011;45222;52.458;20.914;2024-03-02T15:43:53;32.10;;;25.60;;
59416;SDS011;45222;52.458;20.914;2024-03-02T15:47:41;33.50;;;26.20;;
59416;SDS011;45222;52.458;20.914;2024-03-02T15:51:29;33.50;;;26.70;;
59416;SDS011;45222;52.458;20.914;2024-03-02T15:55:18;34.20;;;27.40;;
59416;SDS011;45222;52.458;20.914;2024-03-02T15:59:06;36.30;;;28.70;;
59416;SDS011;45222;52.458;20.914;2024-03-02T16:02:53;38.70;;;29.80;;
59416;SDS011;45222;52.458;20.914;2024-03-02T16:06:41;34.90;;;27.40;;
59416;SDS011;45222;52.458;20.914;2024-03-02T16:10:30;32.20;;;26.70;;
59416;SDS011;45222;52.458;20.914;2024-03-02T16:14:18;33.10;;;26.30;;
59416;SDS011;45222;52.458;20.914;2024-03-02T16:18:06;33.50;;;26.50;;
59416;SDS011;45222;52.458;20.914;2024-03-02T16:21:54;35.90;;;27.70;;
59416;SDS011;45222;52.458;20.914;2024-03-02T16:25:42;39.50;;;31.10;;
59416;SDS011;45222;52.458;20.914;2024-03-02T16:29:30;39.80;;;32.50;;
59416;SDS011;45222;52.458;20.914;2024-03-02T16:33:18;40.70;;;31.40;;
59416;SDS011;45222;52.458;20.914;2024-03-02T16:37:06;44.00;;;29.70;;
59416;SDS011;45222;52.458;20.914;2024-03-02T16:40:53;36.40;;;29.10;;
59416;SDS011;45222;52.458;20.914;2024-03-02T16:44:41;37.20;;;29.00;;
59416;SDS011;45222;52.458;20.914;2024-03-02T16:48:30;40.50;;;30.70;;
59416;SDS011;45222;52.458;20.914;2024-03-02T16:52:18;37.70;;;30.70;;
59416;SDS011;45222;52.458;20.914;2024-03-02T16:56:08;40.70;;;30.40;;
59416;SDS011;45222;52.458;20.914;2024-03-02T16:59:58;36.30;;;29.60;;
59416;SDS011;45222;52.458;20.914;2024-03-02T17:03:46;38.90;;;29.40;;
59416;SDS011;45222;52.458;20.914;2024-03-02T17:07:34;38.50;;;31.60;;
59416;SDS011;45222;52.458;20.914;2024-03-02T17:11:22;38.40;;;31.20;;
59416;SDS011;45222;52.458;20.914;2024-03-02T17:15:11;40.50;;;31.90;;
59416;SDS011;45222;52.458;20.914;2024-03-02T17:18:58;38.70;;;31.00;;
59416;SDS011;45222;52.458;20.914;2024-03-02T17:22:46;42.50;;;31.60;;
59416;SDS011;45222;52.458;20.914;2024-03-02T17:26:34;36.90;;;31.20;;
59416;SDS011;45222;52.458;20.914;2024-03-02T17:30:23;40.50;;;32.30;;
59416;SDS011;45222;52.458;20.914;2024-03-02T17:34:10;41.00;;;35.10;;
59416;SDS011;45222;52.458;20.914;2024-03-02T17:37:58;38.40;;;32.50;;
59416;SDS011;45222;52.458;20.914;2024-03-02T17:41:47;41.50;;;31.40;;
59416;SDS011;45222;52.458;20.914;2024-03-02T17:45:35;37.90;;;32.20;;
59416;SDS011;45222;52.458;20.914;2024-03-02T17:49:24;38.10;;;31.90;;
59416;SDS011;45222;52.458;20.914;2024-03-02T17:53:12;41.90;;;32.50;;
59416;SDS011;45222;52.458;20.914;2024-03-02T18:00:48;40.00;;;31.60;;
59416;SDS011;45222;52.458;20.914;2024-03-02T18:04:36;38.70;;;31.40;;
59416;SDS011;45222;52.458;20.914;2024-03-02T18:08:26;36.80;;;29.50;;
59416;SDS011;45222;52.458;20.914;2024-03-02T18:12:13;35.80;;;26.30;;
59416;SDS011;45222;52.458;20.914;2024-03-02T18:16:01;36.70;;;28.60;;
59416;SDS011;45222;52.458;20.914;2024-03-02T18:19:50;40.10;;;29.50;;
59416;SDS011;45222;52.458;20.914;2024-03-02T18:27:27;37.60;;;29.10;;
59416;SDS011;45222;52.458;20.914;2024-03-02T18:31:14;35.20;;;28.20;;
59416;SDS011;45222;52.458;20.914;2024-03-02T18:35:07;34.90;;;26.40;;
59416;SDS011;45222;52.458;20.914;2024-03-02T18:38:55;37.60;;;27.20;;
59416;SDS011;45222;52.458;20.914;2024-03-02T18:42:46;33.20;;;27.60;;
59416;SDS011;45222;52.458;20.914;2024-03-02T18:46:35;35.30;;;28.00;;
59416;SDS011;45222;52.458;20.914;2024-03-02T18:50:23;37.70;;;29.10;;
59416;SDS011;45222;52.458;20.914;2024-03-02T18:54:10;35.50;;;27.40;;
59416;SDS011;45222;52.458;20.914;2024-03-02T18:57:58;32.90;;;27.20;;
59416;SDS011;45222;52.458;20.914;2024-03-02T19:01:47;35.00;;;26.90;;
59416;SDS011;45222;52.458;20.914;2024-03-02T19:05:35;35.50;;;28.20;;
59416;SDS011;45222;52.458;20.914;2024-03-02T19:09:23;35.60;;;27.70;;
59416;SDS011;45222;52.458;20.914;2024-03-02T19:13:11;34.40;;;27.30;;
59416;SDS011;45222;52.458;20.914;2024-03-02T19:16:59;36.10;;;27.70;;
59416;SDS011;45222;52.458;20.914;2024-03-02T19:20:47;35.50;;;25.40;;
59416;SDS011;45222;52.458;20.914;2024-03-02T19:24:39;33.60;;;26.00;;
59416;SDS011;45222;52.458;20.914;2024-03-02T19:28:33;34.90;;;26.90;;
59416;SDS011;45222;52.458;20.914;2024-03-02T19:32:21;36.30;;;27.70;;
59416;SDS011;45222;52.458;20.914;2024-03-02T19:36:09;34.60;;;27.90;;
59416;SDS011;45222;52.458;20.914;2024-03-02T19:39:57;36.20;;;29.90;;
59416;SDS011;45222;52.458;20.914;2024-03-02T19:43:46;32.80;;;26.70;;
59416;SDS011;45222;52.458;20.914;2024-03-02T19:47:34;34.50;;;26.30;;
59416;SDS011;45222;52.458;20.914;2024-03-02T19:51:22;35.00;;;26.70;;
59416;SDS011;45222;52.458;20.914;2024-03-02T19:55:10;32.10;;;26.10;;
59416;SDS011;45222;52.458;20.914;2024-03-02T19:58:58;35.50;;;26.90;;
59416;SDS011;45222;52.458;20.914;2024-03-02T20:02:46;31.90;;;25.70;;
59416;SDS011;45222;52.458;20.914;2024-03-02T20:06:34;36.10;;;25.80;;
59416;SDS011;45222;52.458;20.914;2024-03-02T20:10:24;35.20;;;25.70;;
59416;SDS011;45222;52.458;20.914;2024-03-02T20:14:12;33.80;;;27.00;;
59416;SDS011;45222;52.458;20.914;2024-03-02T20:18:01;33.90;;;27.30;;
59416;SDS011;45222;52.458;20.914;2024-03-02T20:25:36;36.40;;;27.50;;
59416;SDS011;45222;52.458;20.914;2024-03-02T20:29:24;32.00;;;26.00;;
59416;SDS011;45222;52.458;20.914;2024-03-02T20:33:13;33.80;;;26.40;;
59416;SDS011;45222;52.458;20.914;2024-03-02T20:37:02;37.80;;;26.80;;
59416;SDS011;45222;52.458;20.914;2024-03-02T20:40:50;36.30;;;28.00;;
59416;SDS011;45222;52.458;20.914;2024-03-02T20:44:39;37.70;;;27.70;;
59416;SDS011;45222;52.458;20.914;2024-03-02T20:48:27;37.40;;;29.00;;
59416;SDS011;45222;52.458;20.914;2024-03-02T20:52:15;33.50;;;26.90;;
59416;SDS011;45222;52.458;20.914;2024-03-02T20:59:51;34.50;;;26.60;;
59416;SDS011;45222;52.458;20.914;2024-03-02T21:03:39;33.00;;;26.90;;
59416;SDS011;45222;52.458;20.914;2024-03-02T21:07:28;35.10;;;27.20;;
59416;SDS011;45222;52.458;20.914;2024-03-02T21:11:19;35.90;;;28.20;;
59416;SDS011;45222;52.458;20.914;2024-03-02T21:15:07;35.60;;;26.80;;
59416;SDS011;45222;52.458;20.914;2024-03-02T21:18:56;31.10;;;26.40;;
59416;SDS011;45222;52.458;20.914;2024-03-02T21:22:44;33.90;;;26.40;;
59416;SDS011;45222;52.458;20.914;2024-03-02T21:26:38;32.70;;;27.20;;
59416;SDS011;45222;52.458;20.914;2024-03-02T21:30:26;36.60;;;26.90;;
59416;SDS011;45222;52.458;20.914;2024-03-02T21:34:15;33.20;;;28.10;;
59416;SDS011;45222;52.458;20.914;2024-03-02T21:38:03;35.70;;;28.90;;
59416;SDS011;45222;52.458;20.914;2024-03-02T21:41:52;33.70;;;27.00;;
59416;SDS011;45222;52.458;20.914;2024-03-02T21:45:40;36.70;;;27.20;;
59416;SDS011;45222;52.458;20.914;2024-03-02T21:49:27;33.80;;;26.40;;
59416;SDS011;45222;52.458;20.914;2024-03-02T21:53:15;36.10;;;27.70;;
59416;SDS011;45222;52.458;20.914;2024-03-02T21:57:03;36.30;;;27.60;;
59416;SDS011;45222;52.458;20.914;2024-03-02T22:00:55;35.60;;;28.20;;
59416;SDS011;45222;52.458;20.914;2024-03-02T22:04:43;36.00;;;28.40;;
59416;SDS011;45222;52.458;20.914;2024-03-02T22:08:31;33.40;;;27.00;;
59416;SDS011;45222;52.458;20.914;2024-03-02T22:12:19;39.50;;;29.00;;
59416;SDS011;45222;52.458;20.914;2024-03-02T22:16:06;37.60;;;29.40;;
59416;SDS011;45222;52.458;20.914;2024-03-02T22:19:54;38.60;;;30.00;;
59416;SDS011;45222;52.458;20.914;2024-03-02T22:23:42;40.40;;;28.80;;
59416;SDS011;45222;52.458;20.914;2024-03-02T22:27:30;38.80;;;28.50;;
59416;SDS011;45222;52.458;20.914;2024-03-02T22:31:19;35.30;;;27.40;;